Time;durP1;ratioP1;P1;durP2;ratioP2;P2;SDS_P1;SDS_P2;PMS_P1;PMS_P2;Temp;Humidity;BMP_temperature;BMP_pressure;BME280_temperature;BME280_humidity;BME280_pressure;Samples;Min_cycle;Max_cycle;Signal;HPM_P1;HPM_P2
2023/03/25 00:01:31;;;;;;;2.80;1.55;;;10.20;99.90;;;;;;5005325;28;20636;-66
2023/03/25 00:03:59;;;;;;;4.32;1.60;;;10.10;99.90;;;;;;4983077;28;27295;-66
2023/03/25 00:06:26;;;;;;;3.88;1.75;;;10.10;99.90;;;;;;5018626;28;20232;-66
2023/03/25 00:08:53;;;;;;;6.53;2.00;;;10.10;99.90;;;;;;4998376;28;20202;-66
2023/03/25 00:11:21;;;;;;;4.20;1.83;;;10.00;99.90;;;;;;5015234;28;20206;-66
2023/03/25 00:13:47;;;;;;;2.95;1.50;;;10.00;99.90;;;;;;5004369;28;20209;-66
2023/03/25 00:16:17;;;;;;;4.63;1.67;;;9.90;99.90;;;;;;5019750;28;20214;-66
2023/03/25 00:18:46;;;;;;;4.10;1.83;;;9.90;99.90;;;;;;4988048;28;20512;-66
2023/03/25 00:21:14;;;;;;;2.22;1.50;;;9.80;99.90;;;;;;5006033;28;20212;-66
2023/03/25 00:23:42;;;;;;;3.78;1.65;;;9.80;99.90;;;;;;5009733;28;20197;-67
2023/03/25 00:26:09;;;;;;;4.10;1.85;;;9.80;99.90;;;;;;5008240;28;20730;-66
2023/03/25 00:28:38;;;;;;;2.85;1.58;;;9.80;99.90;;;;;;5007914;28;20402;-66
2023/03/25 00:31:07;;;;;;;7.25;2.00;;;9.90;99.90;;;;;;5016486;28;20502;-66
2023/03/25 00:33:35;;;;;;;5.35;1.92;;;9.90;99.90;;;;;;5010201;28;20458;-66
2023/03/25 00:36:03;;;;;;;3.00;1.60;;;9.90;99.90;;;;;;4984881;28;20427;-66
2023/03/25 00:38:34;;;;;;;6.28;2.08;;;9.90;99.90;;;;;;5023471;28;20201;-66
2023/03/25 00:41:09;;;;;;;5.50;1.70;;;9.90;99.90;;;;;;4998506;28;20960;-66
2023/03/25 00:43:36;;;;;;;3.50;1.73;;;9.90;99.90;;;;;;5017304;28;20209;-66
2023/03/25 00:46:03;;;;;;;5.40;2.25;;;9.90;99.90;;;;;;5003344;28;20310;-66
2023/03/25 00:48:30;;;;;;;4.05;1.58;;;9.90;99.90;;;;;;5012106;28;20292;-66
2023/03/25 00:51:05;;;;;;;5.80;1.77;;;9.90;99.90;;;;;;4984446;28;20822;-66
2023/03/25 00:53:32;;;;;;;4.75;2.03;;;10.00;99.90;;;;;;5016654;28;20343;-66
2023/03/25 00:56:00;;;;;;;3.83;2.15;;;9.90;99.90;;;;;;4999031;28;20202;-66
2023/03/25 00:58:27;;;;;;;2.92;2.00;;;9.90;99.90;;;;;;5016986;28;20198;-66
2023/03/25 01:00:55;;;;;;;5.70;1.92;;;9.90;99.90;;;;;;5003594;28;20236;-66
2023/03/25 01:03:22;;;;;;;3.55;2.00;;;9.90;99.90;;;;;;5008128;28;20237;-66
2023/03/25 01:05:49;;;;;;;7.05;1.88;;;9.90;99.90;;;;;;5015648;28;20194;-66
2023/03/25 01:08:18;;;;;;;3.83;1.80;;;9.80;99.90;;;;;;4993018;28;20206;-66
2023/03/25 01:10:45;;;;;;;5.85;1.83;;;9.90;99.90;;;;;;4998416;28;20198;-66
2023/03/25 01:13:12;;;;;;;4.25;1.60;;;9.90;99.90;;;;;;5016850;28;20309;-66
2023/03/25 01:15:40;;;;;;;6.25;1.98;;;9.90;99.90;;;;;;5009975;28;20204;-66
2023/03/25 01:18:07;;;;;;;6.70;2.20;;;9.80;99.90;;;;;;5020451;28;20670;-66
2023/03/25 01:20:34;;;;;;;3.70;1.67;;;9.90;99.90;;;;;;5014176;28;20311;-66
2023/03/25 01:23:01;;;;;;;4.10;1.65;;;9.90;99.90;;;;;;4989941;28;20704;-66
2023/03/25 01:25:29;;;;;;;6.88;1.60;;;9.90;99.90;;;;;;5001881;28;20208;-66
2023/03/25 01:27:55;;;;;;;5.72;2.58;;;9.90;99.90;;;;;;5021154;28;20193;-66
2023/03/25 01:30:22;;;;;;;4.60;2.33;;;9.90;99.90;;;;;;5010170;28;20198;-66
2023/03/25 01:32:49;;;;;;;7.35;2.50;;;9.90;99.90;;;;;;5025528;28;20197;-66
2023/03/25 01:35:16;;;;;;;4.20;2.03;;;10.00;99.90;;;;;;5022594;28;20197;-66
2023/03/25 01:37:45;;;;;;;6.40;2.05;;;10.00;99.90;;;;;;5024024;28;20827;-66
2023/03/25 01:40:18;;;;;;;4.88;2.13;;;10.00;99.90;;;;;;4990660;28;20836;-66
2023/03/25 01:42:46;;;;;;;4.18;2.42;;;9.90;99.90;;;;;;5005372;28;20225;-66
2023/03/25 01:45:21;;;;;;;3.08;1.90;;;10.00;99.90;;;;;;5017541;28;20193;-66
2023/03/25 01:47:53;;;;;;;4.28;2.30;;;9.90;99.90;;;;;;5003610;28;20212;-66
2023/03/25 01:50:21;;;;;;;5.38;2.13;;;9.90;99.90;;;;;;5015452;28;20244;-66
2023/03/25 01:52:50;;;;;;;5.78;2.42;;;9.90;99.90;;;;;;5017677;28;20653;-66
2023/03/25 01:55:19;;;;;;;4.93;2.28;;;9.90;99.90;;;;;;4983715;28;20212;-66
2023/03/25 01:57:48;;;;;;;10.48;2.67;;;9.90;99.90;;;;;;4999055;28;20288;-66
2023/03/25 02:00:17;;;;;;;3.00;2.00;;;9.80;99.90;;;;;;5014766;28;20198;-66
2023/03/25 02:02:45;;;;;;;5.22;2.08;;;9.80;99.90;;;;;;4998501;28;20237;-66
2023/03/25 02:05:18;;;;;;;8.25;2.90;;;9.80;99.90;;;;;;5015300;28;20229;-66
2023/03/25 02:07:48;;;;;;;5.55;2.90;;;9.80;99.90;;;;;;5017927;28;20949;-66
2023/03/25 02:10:16;;;;;;;5.03;2.67;;;9.90;99.90;;;;;;4982954;28;20620;-66
2023/03/25 02:12:44;;;;;;;4.60;3.05;;;9.80;99.90;;;;;;5000831;28;20241;-66
2023/03/25 02:15:16;;;;;;;9.20;2.80;;;9.80;99.90;;;;;;5016963;28;20281;-66
2023/03/25 02:18:00;;;;;;;3.05;2.30;;;9.80;99.90;;;;;;4995777;28;20193;-66
2023/03/25 02:21:01;;;;;;;6.72;2.65;;;9.80;99.90;;;;;;5020107;28;20202;-66
2023/03/25 02:24:01;;;;;;;4.25;2.33;;;9.80;99.90;;;;;;5023352;28;20231;-66
2023/03/25 02:27:00;;;;;;;10.95;3.17;;;9.80;99.90;;;;;;4986910;28;20206;-66
2023/03/25 02:29:47;;;;;;;4.15;2.65;;;9.80;99.90;;;;;;5007369;28;20576;-66
2023/03/25 02:32:26;;;;;;;5.32;2.78;;;9.80;99.90;;;;;;5008101;28;20702;-66
2023/03/25 02:35:08;;;;;;;5.82;2.95;;;9.80;99.90;;;;;;5014338;28;20225;-66
2023/03/25 02:38:05;;;;;;;6.35;2.72;;;9.90;99.90;;;;;;5015660;28;20205;-66
2023/03/25 02:40:38;;;;;;;5.65;2.30;;;9.90;99.90;;;;;;5007241;28;20293;-66
2023/03/25 02:43:11;;;;;;;4.90;2.58;;;9.80;99.90;;;;;;4990957;28;20226;-66
2023/03/25 02:45:43;;;;;;;7.40;2.60;;;9.80;99.90;;;;;;5019323;28;20657;-66
2023/03/25 02:48:13;;;;;;;6.57;2.50;;;9.80;99.90;;;;;;5002817;28;20802;-66
2023/03/25 02:50:43;;;;;;;4.95;3.00;;;9.80;99.90;;;;;;5017361;28;20198;-66
2023/03/25 02:53:16;;;;;;;8.20;3.33;;;9.80;99.90;;;;;;5001968;28;20202;-66
2023/03/25 02:55:46;;;;;;;4.47;2.83;;;9.80;99.90;;;;;;5013330;28;20205;-66
2023/03/25 02:58:17;;;;;;;5.75;2.88;;;9.80;99.90;;;;;;4983573;28;20603;-66
2023/03/25 03:00:44;;;;;;;4.20;2.50;;;9.80;99.90;;;;;;4997745;28;20221;-66
2023/03/25 03:03:11;;;;;;;3.38;2.55;;;9.70;99.90;;;;;;5003488;28;20638;-66
2023/03/25 03:05:40;;;;;;;6.38;3.28;;;9.70;99.90;;;;;;5016154;28;20795;-66
2023/03/25 03:08:30;;;;;;;4.32;3.20;;;9.70;99.90;;;;;;5010551;28;20197;-66
2023/03/25 03:11:06;;;;;;;3.85;2.95;;;9.70;99.90;;;;;;5012003;28;20392;-66
2023/03/25 03:13:51;;;;;;;7.50;2.80;;;9.70;99.90;;;;;;4986656;28;20835;-66
2023/03/25 03:16:29;;;;;;;3.03;2.25;;;9.70;99.90;;;;;;5006920;28;20208;-66
2023/03/25 03:19:05;;;;;;;3.20;2.20;;;9.60;99.90;;;;;;5002507;28;20921;-66
2023/03/25 03:21:37;;;;;;;2.78;2.00;;;9.70;99.90;;;;;;5020282;28;20196;-66
2023/03/25 03:24:12;;;;;;;8.07;2.50;;;9.60;99.90;;;;;;5004976;28;20887;-67
2023/03/25 03:26:47;;;;;;;5.68;2.20;;;9.60;99.90;;;;;;5021432;28;20308;-66
2023/03/25 03:29:17;;;;;;;4.75;2.83;;;9.50;99.90;;;;;;4961005;28;20765;-66
2023/03/25 03:31:49;;;;;;;6.85;2.75;;;9.50;99.90;;;;;;4991998;28;20534;-66
2023/03/25 03:34:23;;;;;;;5.10;2.55;;;9.50;99.90;;;;;;5015634;28;20211;-66
2023/03/25 03:36:54;;;;;;;5.72;2.50;;;9.50;99.90;;;;;;5011901;28;20436;-67
2023/03/25 03:39:26;;;;;;;4.50;2.55;;;9.40;99.90;;;;;;5015897;28;20198;-66
2023/03/25 03:41:58;;;;;;;8.52;3.22;;;9.50;99.90;;;;;;5019492;28;20287;-66
2023/03/25 03:44:29;;;;;;;4.60;2.88;;;9.40;99.90;;;;;;4977235;28;20229;-67
2023/03/25 03:47:00;;;;;;;4.22;2.70;;;9.40;99.90;;;;;;4990030;28;20197;-67
2023/03/25 03:49:33;;;;;;;5.93;3.03;;;9.40;99.90;;;;;;4998539;28;20198;-67
2023/03/25 03:52:07;;;;;;;5.53;3.00;;;9.30;99.90;;;;;;5010361;28;20205;-67
2023/03/25 03:54:43;;;;;;;11.55;2.80;;;9.40;99.90;;;;;;5009992;28;20585;-67
2023/03/25 03:57:19;;;;;;;6.70;3.00;;;9.40;99.90;;;;;;5012530;28;20190;-66
2023/03/25 03:59:52;;;;;;;7.00;2.67;;;9.40;99.90;;;;;;4979366;28;20762;-67
2023/03/25 04:02:27;;;;;;;4.22;1.90;;;9.30;99.90;;;;;;4993354;28;20233;-67
2023/03/25 04:04:54;;;;;;;3.70;2.22;;;9.30;99.90;;;;;;4998230;28;20228;-66
2023/03/25 04:07:26;;;;;;;4.88;2.03;;;9.20;99.90;;;;;;5001590;28;20213;-66
2023/03/25 04:10:01;;;;;;;4.53;2.50;;;9.30;99.90;;;;;;5007808;28;20209;-66
2023/03/25 04:12:29;;;;;;;3.67;2.03;;;9.30;99.90;;;;;;5007386;28;20197;-67
2023/03/25 04:15:00;;;;;;;3.17;1.73;;;9.20;99.90;;;;;;4980960;28;20206;-66
2023/03/25 04:17:28;;;;;;;5.32;1.90;;;9.20;99.90;;;;;;5012259;28;20201;-66
2023/03/25 04:19:55;;;;;;;3.22;1.85;;;9.20;99.90;;;;;;4994429;28;20210;-67
2023/03/25 04:22:23;;;;;;;5.95;1.58;;;9.20;99.90;;;;;;4996365;28;20206;-66
2023/03/25 04:24:50;;;;;;;4.03;1.60;;;9.20;99.90;;;;;;5009584;28;20706;-66
2023/03/25 04:27:21;;;;;;;3.28;1.73;;;9.20;99.90;;;;;;5013040;28;20423;-66
2023/03/25 04:29:50;;;;;;;5.13;1.77;;;9.10;99.90;;;;;;5015445;28;20197;-66
2023/03/25 04:32:17;;;;;;;4.30;1.55;;;9.10;99.90;;;;;;4992443;28;20246;-66
2023/03/25 04:34:45;;;;;;;2.00;1.40;;;9.10;99.90;;;;;;4999603;28;20214;-66
2023/03/25 04:37:12;;;;;;;3.83;1.67;;;9.10;99.90;;;;;;5016785;28;20198;-66
2023/03/25 04:39:39;;;;;;;7.47;1.80;;;9.30;99.90;;;;;;5005097;28;20198;-66
2023/03/25 04:42:07;;;;;;;4.60;1.50;;;9.10;99.90;;;;;;5022308;28;21025;-66
2023/03/25 04:44:37;;;;;;;3.33;2.00;;;9.00;99.90;;;;;;5010474;28;20229;-66
2023/03/25 04:47:06;;;;;;;4.00;2.17;;;9.00;99.90;;;;;;4989515;28;20202;-67
2023/03/25 04:49:33;;;;;;;6.63;2.22;;;9.10;99.90;;;;;;5010642;28;20727;-66
2023/03/25 04:52:03;;;;;;;4.00;2.40;;;9.10;99.90;;;;;;4999435;28;20305;-67
2023/03/25 04:54:30;;;;;;;5.75;2.10;;;9.10;99.90;;;;;;5000993;28;20212;-66
2023/03/25 04:56:57;;;;;;;5.22;2.65;;;9.10;99.90;;;;;;5015307;28;20197;-66
2023/03/25 04:59:25;;;;;;;10.90;2.60;;;9.10;99.90;;;;;;5008978;28;20259;-66
2023/03/25 05:01:54;;;;;;;7.90;2.70;;;9.10;99.90;;;;;;4986757;28;20743;-67
2023/03/25 05:04:23;;;;;;;6.25;2.22;;;9.10;99.90;;;;;;5016247;28;20225;-66
2023/03/25 05:06:50;;;;;;;7.38;2.80;;;9.10;99.90;;;;;;5000142;28;20445;-66
2023/03/25 05:09:18;;;;;;;6.45;2.38;;;9.10;99.90;;;;;;5005590;28;20229;-66
2023/03/25 05:11:46;;;;;;;8.23;2.20;;;9.10;99.90;;;;;;5016305;28;20424;-67
2023/03/25 05:14:16;;;;;;;6.78;2.40;;;9.10;99.90;;;;;;5020335;28;20202;-66
2023/03/25 05:16:43;;;;;;;9.82;2.80;;;9.10;99.90;;;;;;4983021;28;21280;-66
2023/03/25 05:19:11;;;;;;;6.45;2.85;;;9.10;99.90;;;;;;5022782;28;20197;-66
2023/03/25 05:21:39;;;;;;;4.87;2.33;;;9.10;99.90;;;;;;5003525;28;20571;-66
2023/03/25 05:24:09;;;;;;;4.63;3.13;;;9.10;99.90;;;;;;5019559;28;20529;-66
2023/03/25 05:26:36;;;;;;;6.63;2.60;;;9.10;99.90;;;;;;4994697;28;20824;-66
2023/03/25 05:29:03;;;;;;;5.03;2.63;;;9.10;99.90;;;;;;5012321;28;20673;-66
2023/03/25 05:31:30;;;;;;;5.68;2.67;;;9.10;99.90;;;;;;5006471;28;20520;-66
2023/03/25 05:33:57;;;;;;;6.10;2.90;;;9.10;99.90;;;;;;4988125;28;20205;-66
2023/03/25 05:36:25;;;;;;;7.43;3.08;;;9.10;99.90;;;;;;5011680;28;20290;-66
2023/03/25 05:38:54;;;;;;;5.70;2.50;;;9.10;99.90;;;;;;5018779;28;20205;-67
2023/03/25 05:41:31;;;;;;;11.38;2.55;;;9.10;99.90;;;;;;5010356;28;20252;-66
2023/03/25 05:43:59;;;;;;;9.18;2.53;;;9.20;99.90;;;;;;5020771;28;20618;-66
2023/03/25 05:46:28;;;;;;;6.57;2.50;;;9.10;99.90;;;;;;5008715;28;21907;-66
2023/03/25 05:48:56;;;;;;;7.33;2.50;;;9.10;99.90;;;;;;4987703;28;20213;-67
2023/03/25 05:51:25;;;;;;;6.60;2.60;;;9.10;99.90;;;;;;5000960;28;20863;-66
2023/03/25 05:53:52;;;;;;;6.30;2.47;;;9.10;99.90;;;;;;5007345;28;20792;-66
2023/03/25 05:56:21;;;;;;;12.40;2.60;;;9.20;99.90;;;;;;5010238;28;20209;-66
2023/03/25 05:58:50;;;;;;;7.43;2.50;;;9.10;99.90;;;;;;5004141;28;20384;-66
2023/03/25 06:01:19;;;;;;;9.95;2.50;;;9.20;99.90;;;;;;5015841;28;20281;-66
2023/03/25 06:03:46;;;;;;;8.52;2.63;;;9.20;99.90;;;;;;5011264;28;21039;-66
2023/03/25 06:06:17;;;;;;;2.78;2.20;;;9.20;99.90;;;;;;4989916;28;20582;-66
2023/03/25 06:08:46;;;;;;;7.00;2.15;;;9.30;99.90;;;;;;5001442;28;20423;-66
2023/03/25 06:11:13;;;;;;;5.97;2.40;;;9.20;99.90;;;;;;5025046;28;20206;-66
2023/03/25 06:13:41;;;;;;;6.18;2.30;;;9.20;99.90;;;;;;5007745;28;20404;-66
2023/03/25 06:16:10;;;;;;;10.07;2.55;;;9.30;99.90;;;;;;5019149;28;20204;-66
2023/03/25 06:18:37;;;;;;;8.75;3.22;;;9.30;99.90;;;;;;5004391;28;20210;-66
2023/03/25 06:21:05;;;;;;;7.53;2.55;;;9.30;99.90;;;;;;4984271;28;20206;-66
2023/03/25 06:23:34;;;;;;;6.45;2.50;;;9.20;99.90;;;;;;4998216;28;23185;-66
2023/03/25 06:26:03;;;;;;;4.25;2.35;;;9.30;99.90;;;;;;5015681;28;20202;-66
2023/03/25 06:28:30;;;;;;;7.03;3.03;;;9.30;99.90;;;;;;5000588;28;20190;-66
2023/03/25 06:30:57;;;;;;;4.32;2.50;;;9.30;99.90;;;;;;5016111;28;20206;-66
2023/03/25 06:33:24;;;;;;;9.52;2.65;;;9.30;99.90;;;;;;5003516;28;20202;-66
2023/03/25 06:35:53;;;;;;;6.43;2.80;;;9.30;99.90;;;;;;4985491;28;22077;-66
2023/03/25 06:38:21;;;;;;;12.20;3.22;;;9.30;99.90;;;;;;5007489;28;20498;-66
2023/03/25 06:40:47;;;;;;;6.35;3.25;;;9.30;99.90;;;;;;5009829;28;20391;-66
2023/03/25 06:43:16;;;;;;;5.63;2.58;;;9.30;99.90;;;;;;5015209;28;20193;-66
2023/03/25 06:45:42;;;;;;;5.65;2.75;;;9.30;99.90;;;;;;5003120;28;20526;-66
2023/03/25 06:48:09;;;;;;;6.60;2.65;;;9.40;99.90;;;;;;5004367;28;20199;-66
2023/03/25 06:50:36;;;;;;;6.07;2.88;;;9.40;99.90;;;;;;5016622;28;20690;-66
2023/03/25 06:53:03;;;;;;;8.55;3.35;;;9.40;99.90;;;;;;4982290;28;20720;-66
2023/03/25 06:55:30;;;;;;;4.70;2.35;;;9.40;99.90;;;;;;4999195;28;20216;-67
2023/03/25 06:57:57;;;;;;;8.45;2.90;;;9.40;99.90;;;;;;5014099;28;20544;-66
2023/03/25 07:00:27;;;;;;;4.57;2.33;;;9.50;99.90;;;;;;5002815;28;20205;-66
2023/03/25 07:02:54;;;;;;;5.03;2.78;;;9.50;99.90;;;;;;5003011;28;20239;-66
2023/03/25 07:05:21;;;;;;;3.72;2.30;;;9.50;99.90;;;;;;4995458;28;20227;-66
2023/03/25 07:07:48;;;;;;;4.40;2.80;;;9.50;99.90;;;;;;4983643;28;20209;-66
2023/03/25 07:10:15;;;;;;;5.03;2.50;;;9.50;99.90;;;;;;4988401;28;20202;-66
2023/03/25 07:12:41;;;;;;;10.57;2.80;;;9.60;99.90;;;;;;5010229;28;20403;-66
2023/03/25 07:15:09;;;;;;;6.07;2.53;;;9.60;99.90;;;;;;5002275;28;20608;-66
2023/03/25 07:17:37;;;;;;;7.50;2.25;;;9.50;99.90;;;;;;5021226;28;20365;-66
2023/03/25 07:20:05;;;;;;;7.93;2.40;;;9.40;99.90;;;;;;5022483;28;20200;-66
2023/03/25 07:22:32;;;;;;;11.40;2.63;;;9.40;99.90;;;;;;5012316;28;20219;-66
2023/03/25 07:24:59;;;;;;;7.80;2.42;;;9.40;99.90;;;;;;4989046;28;20235;-66
2023/03/25 07:27:26;;;;;;;2.85;2.10;;;9.30;99.90;;;;;;4991884;28;20205;-66
2023/03/25 07:29:54;;;;;;;7.38;2.58;;;9.30;99.90;;;;;;5020569;28;20210;-66
2023/03/25 07:32:21;;;;;;;6.68;2.60;;;9.20;99.90;;;;;;5002884;28;20205;-66
2023/03/25 07:34:49;;;;;;;9.52;2.63;;;9.20;99.90;;;;;;5021006;28;20352;-67
2023/03/25 07:37:16;;;;;;;4.63;2.28;;;9.20;99.90;;;;;;5018833;28;20201;-66
2023/03/25 07:39:43;;;;;;;3.05;1.63;;;9.10;99.90;;;;;;4977549;28;20663;-67
2023/03/25 07:42:10;;;;;;;6.20;1.77;;;9.00;99.90;;;;;;4999330;28;20213;-67
2023/03/25 07:44:36;;;;;;;6.70;1.80;;;8.90;99.90;;;;;;5017644;28;20466;-66
2023/03/25 07:47:03;;;;;;;2.45;1.33;;;8.80;99.90;;;;;;4995285;28;20210;-66
2023/03/25 07:49:30;;;;;;;5.10;1.35;;;8.70;99.90;;;;;;5012643;28;20225;-66
2023/03/25 07:51:58;;;;;;;7.03;1.97;;;8.80;99.90;;;;;;5017464;28;21122;-66
2023/03/25 07:54:25;;;;;;;3.40;1.60;;;8.70;99.90;;;;;;4987580;28;20228;-66
2023/03/25 07:56:54;;;;;;;6.25;1.52;;;8.70;99.90;;;;;;4997062;28;20201;-66
2023/03/25 07:59:20;;;;;;;6.17;1.30;;;8.70;99.90;;;;;;5023026;28;20446;-66
2023/03/25 08:01:47;;;;;;;4.70;1.33;;;8.70;99.90;;;;;;4998292;28;20253;-66
2023/03/25 08:04:14;;;;;;;2.80;1.65;;;8.70;99.90;;;;;;5023953;28;20498;-66
2023/03/25 08:06:41;;;;;;;2.77;1.00;;;8.80;99.90;;;;;;4989264;28;20795;-67
2023/03/25 08:09:09;;;;;;;3.13;1.35;;;8.80;99.90;;;;;;4983666;28;20684;-66
2023/03/25 08:11:36;;;;;;;3.53;1.20;;;8.80;99.90;;;;;;5019172;28;20544;-66
2023/03/25 08:14:03;;;;;;;2.58;0.90;;;8.70;99.90;;;;;;4998784;28;20969;-66
2023/03/25 08:16:30;;;;;;;3.13;0.98;;;8.70;99.90;;;;;;4998061;28;20221;-66
2023/03/25 08:18:56;;;;;;;2.63;1.02;;;8.70;99.90;;;;;;5017781;28;20214;-66
2023/03/25 08:21:26;;;;;;;1.53;0.73;;;8.70;99.90;;;;;;5010512;28;20728;-66
2023/03/25 08:23:57;;;;;;;2.43;0.87;;;8.60;99.90;;;;;;4997938;28;20678;-66
2023/03/25 08:26:25;;;;;;;3.03;1.08;;;8.60;99.90;;;;;;4982244;28;20805;-66
2023/03/25 08:28:53;;;;;;;2.65;0.93;;;8.70;99.90;;;;;;4994846;28;20264;-66
2023/03/25 08:31:20;;;;;;;0.77;0.75;;;8.70;99.90;;;;;;5008930;28;20292;-66
2023/03/25 08:33:47;;;;;;;2.33;1.10;;;8.80;99.90;;;;;;4988853;28;20583;-66
2023/03/25 08:36:18;;;;;;;2.28;1.25;;;8.90;99.90;;;;;;5002244;28;20656;-66
2023/03/25 08:38:45;;;;;;;3.65;1.15;;;9.00;99.90;;;;;;4997504;28;20224;-67
2023/03/25 08:41:12;;;;;;;1.60;1.05;;;9.10;99.90;;;;;;4984964;28;20249;-66
2023/03/25 08:43:40;;;;;;;1.20;1.10;;;9.20;99.90;;;;;;4999415;28;20229;-66
2023/03/25 08:46:07;;;;;;;3.85;1.70;;;9.20;99.90;;;;;;5013412;28;20248;-66
2023/03/25 08:48:34;;;;;;;4.85;1.75;;;9.30;99.90;;;;;;4989261;28;20616;-66
2023/03/25 08:51:01;;;;;;;5.65;1.88;;;9.30;99.90;;;;;;5010964;28;20363;-66
2023/03/25 08:53:28;;;;;;;7.00;1.70;;;9.40;99.90;;;;;;4996165;28;20209;-67
2023/03/25 08:55:56;;;;;;;3.08;1.17;;;9.40;99.90;;;;;;4976665;28;20244;-67
2023/03/25 08:58:24;;;;;;;5.38;1.70;;;9.50;99.90;;;;;;4996581;28;20861;-67
2023/03/25 09:00:54;;;;;;;2.97;1.85;;;9.70;99.90;;;;;;4978500;28;20212;-67
2023/03/25 09:03:22;;;;;;;10.07;1.88;;;9.80;99.90;;;;;;4986064;28;20245;-67
2023/03/25 09:05:49;;;;;;;3.42;1.48;;;9.90;99.90;;;;;;4975659;28;20806;-67
2023/03/25 09:08:16;;;;;;;5.35;1.83;;;9.90;99.90;;;;;;5008020;28;20810;-67
2023/03/25 09:10:43;;;;;;;6.25;1.70;;;9.90;99.90;;;;;;4948284;28;20221;-67
2023/03/25 09:13:09;;;;;;;7.68;1.75;;;10.00;99.90;;;;;;5015806;28;20778;-67
2023/03/25 09:15:36;;;;;;;7.47;2.17;;;10.00;99.90;;;;;;4979663;28;20207;-67
2023/03/25 09:18:05;;;;;;;5.18;1.95;;;10.20;99.90;;;;;;4993152;28;20228;-67
2023/03/25 09:20:32;;;;;;;5.03;1.20;;;10.20;99.90;;;;;;4997455;28;20222;-67
2023/03/25 09:22:59;;;;;;;6.55;2.28;;;10.30;99.90;;;;;;4995600;28;20454;-66
2023/03/25 09:25:27;;;;;;;10.60;1.77;;;10.40;99.90;;;;;;4989318;28;20243;-67
2023/03/25 09:27:54;;;;;;;5.65;1.98;;;10.60;99.90;;;;;;4988971;28;20226;-67
2023/03/25 09:30:21;;;;;;;6.05;2.05;;;10.60;99.90;;;;;;4988828;28;20627;-67
2023/03/25 09:32:47;;;;;;;3.45;1.55;;;10.40;99.90;;;;;;4989396;28;20587;-67
2023/03/25 09:35:16;;;;;;;6.70;1.90;;;10.40;99.90;;;;;;4989068;28;20378;-67
2023/03/25 09:37:43;;;;;;;5.30;2.30;;;10.30;99.90;;;;;;4995034;28;20619;-67
2023/03/25 09:40:15;;;;;;;5.35;1.75;;;10.10;99.90;;;;;;4984322;28;20988;-67
2023/03/25 09:43:00;;;;;;;3.75;1.75;;;10.00;99.90;;;;;;4969878;28;20229;-67
2023/03/25 09:45:34;;;;;;;4.57;1.40;;;9.80;99.90;;;;;;4994951;28;20237;-67
2023/03/25 09:48:05;;;;;;;5.20;1.63;;;9.60;99.90;;;;;;4988143;28;20202;-67
2023/03/25 09:50:35;;;;;;;6.18;1.40;;;9.40;99.90;;;;;;4999047;28;20210;-67
2023/03/25 09:53:06;;;;;;;3.63;0.93;;;9.30;99.90;;;;;;4994565;28;20204;-68
2023/03/25 09:55:39;;;;;;;2.00;1.15;;;9.10;99.90;;;;;;4996159;28;20224;-67
2023/03/25 09:58:26;;;;;;;1.42;0.77;;;8.90;99.90;;;;;;4975902;28;20502;-67
2023/03/25 10:01:00;;;;;;;1.70;1.15;;;8.80;99.90;;;;;;4997581;28;20224;-68
2023/03/25 10:03:35;;;;;;;2.38;1.10;;;8.80;99.90;;;;;;5011233;28;20228;-68
2023/03/25 10:06:16;;;;;;;4.90;1.50;;;9.10;99.90;;;;;;4991879;28;20243;-68
2023/03/25 10:09:06;;;;;;;3.60;1.08;;;9.20;99.90;;;;;;5014833;28;20201;-68
2023/03/25 10:11:39;;;;;;;4.57;1.20;;;9.10;99.90;;;;;;4991913;28;20225;-68
2023/03/25 10:14:10;;;;;;;6.18;1.40;;;9.10;99.90;;;;;;4979362;28;20221;-68
2023/03/25 10:16:48;;;;;;;5.03;1.05;;;9.20;99.90;;;;;;4999450;28;20225;-68
2023/03/25 10:19:31;;;;;;;4.82;1.13;;;9.20;99.90;;;;;;5010843;28;20321;-68
2023/03/25 10:22:04;;;;;;;5.47;1.20;;;9.30;99.90;;;;;;4973741;28;21372;-68
2023/03/25 10:24:34;;;;;;;4.25;0.93;;;9.30;99.90;;;;;;5004131;28;20206;-68
2023/03/25 10:27:05;;;;;;;3.28;1.42;;;9.30;99.90;;;;;;4989770;28;20832;-68
2023/03/25 10:29:36;;;;;;;2.17;1.13;;;9.30;99.90;;;;;;4983246;28;20275;-68
2023/03/25 10:32:07;;;;;;;1.25;1.00;;;9.30;99.90;;;;;;4972545;28;21247;-67
2023/03/25 10:34:37;;;;;;;5.78;1.30;;;9.40;99.90;;;;;;5004206;28;20205;-68
2023/03/25 10:37:11;;;;;;;4.32;1.38;;;9.50;99.90;;;;;;4995412;28;20206;-68
2023/03/25 10:39:44;;;;;;;4.30;1.17;;;9.60;99.90;;;;;;5006971;28;20656;-68
2023/03/25 10:42:20;;;;;;;3.08;1.55;;;9.70;99.90;;;;;;4970279;28;20320;-68
2023/03/25 10:44:48;;;;;;;5.45;1.50;;;9.70;99.90;;;;;;4972903;28;20700;-68
2023/03/25 10:47:19;;;;;;;2.72;1.58;;;9.80;99.90;;;;;;5011713;28;20194;-68
2023/03/25 10:49:48;;;;;;;6.20;2.17;;;9.90;99.90;;;;;;4981284;28;20682;-68
2023/03/25 10:52:16;;;;;;;8.20;1.80;;;10.00;99.90;;;;;;4992605;28;20567;-68
2023/03/25 10:54:47;;;;;;;7.82;1.77;;;10.00;99.90;;;;;;5000973;28;20209;-68
2023/03/25 10:57:20;;;;;;;4.65;1.83;;;10.10;99.90;;;;;;4987235;28;20403;-68
2023/03/25 10:59:57;;;;;;;10.13;1.60;;;10.00;99.90;;;;;;4991789;28;20200;-68
2023/03/25 11:02:27;;;;;;;6.30;1.40;;;10.10;99.90;;;;;;5003709;28;21703;-68
2023/03/25 11:04:58;;;;;;;8.50;2.05;;;10.20;99.90;;;;;;4957381;28;20375;-68
2023/03/25 11:07:30;;;;;;;10.50;2.67;;;10.10;99.90;;;;;;5010982;28;20348;-68
2023/03/25 11:10:10;;;;;;;4.50;1.67;;;10.10;99.90;;;;;;4971325;28;20216;-68
2023/03/25 11:12:38;;;;;;;5.45;2.42;;;10.00;99.90;;;;;;4988227;28;20229;-68
2023/03/25 11:15:06;;;;;;;7.40;2.05;;;9.80;99.90;;;;;;4995379;28;20355;-69
2023/03/25 11:17:34;;;;;;;7.88;1.92;;;9.80;99.90;;;;;;4968955;28;20707;-69
2023/03/25 11:20:09;;;;;;;9.88;2.08;;;9.80;99.90;;;;;;4990065;28;21660;-69
2023/03/25 11:22:44;;;;;;;4.93;1.65;;;9.70;99.90;;;;;;5006272;28;20198;-69
2023/03/25 11:25:18;;;;;;;3.97;1.63;;;9.60;99.90;;;;;;4998261;28;20266;-69
2023/03/25 11:27:49;;;;;;;2.72;1.38;;;9.60;99.90;;;;;;4991472;28;20711;-69
2023/03/25 11:30:19;;;;;;;3.00;1.35;;;9.50;99.90;;;;;;5002270;28;21389;-69
2023/03/25 11:32:57;;;;;;;4.18;1.05;;;9.70;99.90;;;;;;4979183;28;20233;-69
2023/03/25 11:35:26;;;;;;;5.00;1.30;;;9.70;99.90;;;;;;4985040;28;20699;-68
2023/03/25 11:37:57;;;;;;;2.72;1.15;;;9.70;99.90;;;;;;5004070;28;20415;-69
2023/03/25 11:40:25;;;;;;;2.70;1.13;;;9.60;99.90;;;;;;4991159;28;20199;-69
2023/03/25 11:42:54;;;;;;;4.35;1.40;;;9.60;99.90;;;;;;4983020;28;20676;-69
2023/03/25 11:45:23;;;;;;;4.82;1.48;;;9.60;99.90;;;;;;4997753;28;20703;-69
2023/03/25 11:47:51;;;;;;;5.65;1.50;;;9.60;99.90;;;;;;4977344;28;20213;-69
2023/03/25 11:50:23;;;;;;;7.28;1.77;;;9.60;99.90;;;;;;4990837;28;21013;-69
2023/03/25 11:52:54;;;;;;;7.47;1.63;;;9.70;99.90;;;;;;5009858;28;20328;-69
2023/03/25 11:55:27;;;;;;;3.30;1.52;;;9.70;99.90;;;;;;5000215;28;20305;-69
2023/03/25 11:57:56;;;;;;;2.92;1.05;;;9.70;99.90;;;;;;4990128;28;20197;-69
2023/03/25 12:00:41;;;;;;;3.35;0.80;;;9.70;99.90;;;;;;4985120;28;20233;-69
2023/03/25 12:03:21;;;;;;;5.93;0.90;;;9.80;99.90;;;;;;4978173;28;20474;-69
2023/03/25 12:06:00;;;;;;;0.82;0.73;;;9.90;99.90;;;;;;5019303;28;20224;-69
2023/03/25 12:08:30;;;;;;;2.42;1.30;;;10.10;99.90;;;;;;5005016;28;20229;-69
2023/03/25 12:11:05;;;;;;;1.90;0.90;;;10.20;99.90;;;;;;4992820;28;20209;-69
2023/03/25 12:13:43;;;;;;;2.38;0.70;;;10.30;99.90;;;;;;4999563;28;20216;-69
2023/03/25 12:16:20;;;;;;;1.45;0.88;;;10.40;99.90;;;;;;4998045;28;20205;-69
2023/03/25 12:19:03;;;;;;;4.95;1.35;;;10.50;99.90;;;;;;4983318;28;20248;-69
2023/03/25 12:21:42;;;;;;;6.40;1.40;;;10.50;99.90;;;;;;5021315;28;20216;-69
2023/03/25 12:24:21;;;;;;;5.70;1.52;;;10.50;99.90;;;;;;5001124;28;20221;-69
2023/03/25 12:26:57;;;;;;;6.88;1.40;;;10.40;99.90;;;;;;5007022;28;20248;-69
2023/03/25 12:29:34;;;;;;;7.10;1.52;;;10.30;99.90;;;;;;5003188;28;20235;-69
2023/03/25 12:32:17;;;;;;;1.60;1.10;;;10.10;99.90;;;;;;4999862;28;20209;-69
2023/03/25 12:34:57;;;;;;;4.78;1.20;;;10.10;99.90;;;;;;4981171;28;20201;-69
2023/03/25 12:37:31;;;;;;;4.95;1.45;;;10.00;99.90;;;;;;4983366;28;20362;-69
2023/03/25 12:40:26;;;;;;;2.60;1.08;;;10.00;99.90;;;;;;4999126;28;20212;-69
2023/03/25 12:43:03;;;;;;;0.75;0.75;;;10.10;99.90;;;;;;4992589;28;20225;-69
2023/03/25 12:45:45;;;;;;;2.90;1.40;;;10.10;99.90;;;;;;5004060;28;20338;-69
2023/03/25 12:48:24;;;;;;;3.63;0.90;;;10.10;99.90;;;;;;4977672;28;20205;-69
2023/03/25 12:51:00;;;;;;;1.30;0.85;;;10.10;99.90;;;;;;4966523;28;20209;-69
2023/03/25 12:53:41;;;;;;;1.73;1.17;;;10.30;99.90;;;;;;4988643;28;20365;-69
2023/03/25 12:56:21;;;;;;;4.63;1.50;;;10.50;99.90;;;;;;5012477;28;20289;-69
2023/03/25 12:59:22;;;;;;;3.53;1.20;;;10.50;99.90;;;;;;4984675;28;20699;-69
2023/03/25 13:01:58;;;;;;;2.55;1.33;;;10.60;99.90;;;;;;4998994;28;20297;-69
2023/03/25 13:04:37;;;;;;;7.75;2.42;;;10.60;99.90;;;;;;4976776;28;20209;-69
2023/03/25 13:07:09;;;;;;;4.38;1.50;;;10.50;99.90;;;;;;5012752;28;20615;-69
2023/03/25 13:09:40;;;;;;;9.63;3.55;;;10.20;99.90;;;;;;4994555;28;20340;-69
2023/03/25 13:12:13;;;;;;;6.63;2.55;;;9.90;99.90;;;;;;4986023;28;20297;-69
2023/03/25 13:14:47;;;;;;;6.78;1.30;;;9.80;99.90;;;;;;4992503;28;20226;-70